^^
Meteo Knjazevac Station Historical Data
Daily Summary for September 19, 2021 Units:  Metric    English   Both
Daily Weekly Monthly Yearly Custom
  High: Low: Average:
Temperature: 29.3 °C 17.9 °C 21.8 °C
Dew Point: 24.2 °C 17.7 °C 20.2 °C
Humidity: 99% 72% 91%
Wind Speed: 16.1km/h 0km/h 3.2km/h
Wind Gust: 25.7km/h - -
Wind- - SE
Pressure: 1013.1 hPa 1011.1 hPa -
Precipitation: 0.51 mm    
Historical Graphs
 
 
Tabular Data for September 19, 2021
Time Temperature Dew Point Pressure Wind Wind Speed Wind Gust Humidity Rainfall Rate (Hourly) solar Conditions
00:00 18.6 °C 18.4 °C 1012.1 hPa NE 4.8 km/h 8 km/h 99% 0 mm 0 W/m2
00:10 18.6 °C 18.4 °C 1012.4 hPa NE 3.2 km/h 8 km/h 99% 0 mm 0 W/m2
00:20 18.6 °C 18.4 °C 1012.1 hPa NE 3.2 km/h 3.2 km/h 99% 0 mm 0 W/m2
00:30 18.6 °C 18.4 °C 1012.1 hPa NE 3.2 km/h 3.2 km/h 99% 0 mm 0 W/m2
00:40 18.6 °C 18.4 °C 1012.1 hPa NE 3.2 km/h 3.2 km/h 99% 0 mm 0 W/m2
00:50 18.6 °C 18.4 °C 1012.4 hPa NE 1.6 km/h 3.2 km/h 99% 0 mm 0 W/m2
01:00 18.5 °C 18.3 °C 1011.7 hPa NE 3.2 km/h 3.2 km/h 99% 0 mm 0 W/m2
01:10 18.5 °C 18.3 °C 1012.1 hPa NE 1.6 km/h 3.2 km/h 99% 0 mm 0 W/m2
01:20 18.5 °C 18.3 °C 1012.1 hPa NE 1.6 km/h 3.2 km/h 99% 0 mm 0 W/m2
01:30 18.5 °C 18.3 °C 1012.1 hPa NE 1.6 km/h 1.6 km/h 99% 0 mm 0 W/m2
01:40 18.5 °C 18.3 °C 1012.1 hPa NE 1.6 km/h 1.6 km/h 99% 0 mm 0 W/m2
01:50 18.4 °C 18.2 °C 1012.1 hPa NE 1.6 km/h 1.6 km/h 99% 0 mm 0 W/m2
02:00 18.4 °C 18.2 °C 1012.1 hPa NE 1.6 km/h 1.6 km/h 99% 0 mm 0 W/m2
02:10 18.4 °C 18.2 °C 1012.1 hPa NE 1.6 km/h 1.6 km/h 99% 0 mm 0 W/m2
02:20 18.4 °C 18.2 °C 1012.1 hPa NE 1.6 km/h 1.6 km/h 99% 0 mm 0 W/m2
02:30 18.4 °C 18.2 °C 1012.1 hPa NE 1.6 km/h 1.6 km/h 99% 0 mm 0 W/m2
02:40 18.4 °C 18.2 °C 1012.1 hPa NE 1.6 km/h 1.6 km/h 99% 0 mm 0 W/m2
02:50 18.4 °C 18.2 °C 1012.4 hPa NE 1.6 km/h 1.6 km/h 99% 0 mm 0 W/m2
03:00 18.4 °C 18.2 °C 1012.4 hPa NE 1.6 km/h 1.6 km/h 99% 0 mm 0 W/m2
03:10 18.5 °C 18.3 °C 1012.1 hPa NE 1.6 km/h 1.6 km/h 99% 0 mm 0 W/m2
03:20 18.5 °C 18.3 °C 1012.1 hPa NE 1.6 km/h 1.6 km/h 99% 0 mm 0 W/m2
03:30 18.5 °C 18.3 °C 1012.1 hPa NE 1.6 km/h 1.6 km/h 99% 0 mm 0 W/m2
03:40 18.5 °C 18.3 °C 1012.1 hPa NE 1.6 km/h 1.6 km/h 99% 0 mm 0 W/m2
03:50 18.5 °C 18.3 °C 1012.1 hPa NNE 1.6 km/h 1.6 km/h 99% 0 mm 0 W/m2
04:00 18.5 °C 18.3 °C 1012.1 hPa NNE 1.6 km/h 1.6 km/h 99% 0 mm 0 W/m2
04:10 18.5 °C 18.3 °C 1012.1 hPa NW 1.6 km/h 1.6 km/h 99% 0 mm 0 W/m2
04:20 18.4 °C 18.2 °C 1012.4 hPa Calm   4.8 km/h 99% 0 mm 0 W/m2
04:30 18.4 °C 18.2 °C 1012.4 hPa Calm   8 km/h 99% 0 mm 0 W/m2
04:40 18.3 °C 18.2 °C 1012.4 hPa NW 1.6 km/h 1.6 km/h 99% 0 mm 0 W/m2
04:50 18.3 °C 18.2 °C 1012.4 hPa NW 1.6 km/h 1.6 km/h 99% 0 mm 0 W/m2
05:00 18.3 °C 18.2 °C 1012.4 hPa NW 1.6 km/h 1.6 km/h 99% 0 mm 0 W/m2
05:10 18.2 °C 18.1 °C 1012.8 hPa NNW 1.6 km/h 1.6 km/h 99% 0 mm 2 W/m2
05:20 18.2 °C 18.1 °C 1012.8 hPa North 1.6 km/h 4.8 km/h 99% 0 mm 7 W/m2
05:30 18.2 °C 18 °C 1012.4 hPa North 3.2 km/h 6.4 km/h 99% 0 mm 14 W/m2
05:40 18.1 °C 17.9 °C 1012.4 hPa North 1.6 km/h 1.6 km/h 99% 0 mm 30 W/m2
05:50 18 °C 17.8 °C 1012.8 hPa North 1.6 km/h 1.6 km/h 99% 0 mm 47 W/m2
06:00 17.9 °C 17.7 °C 1012.8 hPa North 1.6 km/h 1.6 km/h 99% 0 mm 71 W/m2
06:10 18 °C 17.8 °C 1012.8 hPa North 1.6 km/h 1.6 km/h 99% 0 mm 83 W/m2
06:20 18 °C 17.8 °C 1012.8 hPa NNW 1.6 km/h 1.6 km/h 99% 0 mm 77 W/m2
06:30 18.2 °C 18.1 °C 1012.8 hPa NNW 1.6 km/h 1.6 km/h 99% 0 mm 124 W/m2
06:40 18.4 °C 18.2 °C 1012.8 hPa NNW 1.6 km/h 1.6 km/h 99% 0 mm 155 W/m2
06:50 18.5 °C 18.4 °C 1012.8 hPa NNW 1.6 km/h 1.6 km/h 99% 0 mm 192 W/m2
07:00 18.7 °C 18.6 °C 1013.1 hPa Calm   1.6 km/h 99% 0 mm 186 W/m2
07:10 18.8 °C 18.7 °C 1012.8 hPa Calm   1.6 km/h 99% 0 mm 173 W/m2
07:20 18.9 °C 18.7 °C 1012.8 hPa Calm   1.6 km/h 99% 0 mm 173 W/m2
07:30 18.9 °C 18.7 °C 1012.8 hPa Calm     99% 0 mm 208 W/m2
07:40 19 °C 18.8 °C 1012.8 hPa Calm     99% 0 mm 344 W/m2
07:50 19 °C 18.8 °C 1012.8 hPa SW 8 km/h 9.7 km/h 99% 0 mm 357 W/m2
08:00 19.1 °C 18.9 °C 1012.8 hPa SSW 9.7 km/h 12.9 km/h 99% 0 mm 391 W/m2
08:10 19.3 °C 19.2 °C 1012.8 hPa SSW 12.9 km/h 16.1 km/h 99% 0 mm 423 W/m2
08:20 19.5 °C 19.3 °C 1012.8 hPa SSE 3.2 km/h 12.9 km/h 99% 0 mm 463 W/m2
08:30 19.6 °C 19.4 °C 1012.8 hPa ENE 1.6 km/h 11.3 km/h 99% 0 mm 509 W/m2
08:40 19.8 °C 19.7 °C 1012.8 hPa NE 1.6 km/h 1.6 km/h 99% 0 mm 377 W/m2
08:50 20 °C 19.8 °C 1012.8 hPa NE 1.6 km/h 1.6 km/h 99% 0 mm 575 W/m2
09:00 20.3 °C 20.2 °C 1012.8 hPa NNE 1.6 km/h 1.6 km/h 99% 0 mm 603 W/m2
09:10 21 °C 20.9 °C 1012.8 hPa NNW 1.6 km/h 9.7 km/h 99% 0 mm 648 W/m2
09:20 21.6 °C 20.8 °C 1012.8 hPa SSW 14.5 km/h 16.1 km/h 95% 0 mm 530 W/m2
09:30 22.1 °C 21 °C 1012.8 hPa SSE 1.6 km/h 16.1 km/h 94% 0 mm 713 W/m2
09:40 22.5 °C 21.5 °C 1012.8 hPa NE 1.6 km/h 3.2 km/h 94% 0 mm 737 W/m2
09:50 22.9 °C 21.4 °C 1012.8 hPa NE 1.6 km/h 3.2 km/h 91% 0 mm 681 W/m2
10:00 23.2 °C 21.5 °C 1012.8 hPa NE 1.6 km/h 6.4 km/h 90% 0 mm 751 W/m2
10:10 23.7 °C 21.9 °C 1012.8 hPa Calm   8 km/h 90% 0 mm 803 W/m2
10:20 24.2 °C 21.7 °C 1012.8 hPa WNW 1.6 km/h 4.8 km/h 86% 0 mm 823 W/m2
10:30 24.5 °C 22 °C 1012.8 hPa West 1.6 km/h 8 km/h 86% 0 mm 842 W/m2
10:40 25.1 °C 22.5 °C 1012.8 hPa West 1.6 km/h 11.3 km/h 86% 0 mm 859 W/m2
10:50 25.4 °C 22.7 °C 1012.8 hPa NW 1.6 km/h 9.7 km/h 85% 0 mm 277 W/m2
11:00 25.6 °C 22.1 °C 1012.8 hPa North 1.6 km/h 11.3 km/h 81% 0 mm 802 W/m2
11:10 25.8 °C 22.1 °C 1012.8 hPa North 3.2 km/h 8 km/h 80% 0 mm 848 W/m2
11:30 26.4 °C 22.3 °C 1012.4 hPa North 4.8 km/h 11.3 km/h 78% 0 mm 592 W/m2
11:40 26.6 °C 22.7 °C 1012.4 hPa NNE 3.2 km/h 12.9 km/h 79% 0 mm 615 W/m2
11:50 27 °C 23.1 °C 1012.4 hPa North 3.2 km/h 11.3 km/h 79% 0 mm 942 W/m2
12:00 27.3 °C 23.3 °C 1012.4 hPa North 4.8 km/h 17.7 km/h 79% 0 mm 948 W/m2
12:10 27.7 °C 23.3 °C 1012.1 hPa NE 4.8 km/h 12.9 km/h 77% 0 mm 953 W/m2
12:20 27.8 °C 23.7 °C 1012.1 hPa North 8 km/h 14.5 km/h 78% 0 mm 788 W/m2
12:30 28 °C 23.2 °C 1012.1 hPa North 8 km/h 16.1 km/h 75% 0 mm 958 W/m2
12:40 28 °C 23.6 °C 1012.1 hPa NNE 3.2 km/h 14.5 km/h 77% 0 mm 958 W/m2
12:50 28.3 °C 24.1 °C 1011.7 hPa NNE 1.6 km/h 12.9 km/h 78% 0 mm 956 W/m2
13:00 28.5 °C 23.6 °C 1011.7 hPa North 3.2 km/h 12.9 km/h 75% 0 mm 680 W/m2
13:10 28.8 °C 23.5 °C 1011.7 hPa North 8 km/h 14.5 km/h 73% 0 mm 456 W/m2
13:20 28.9 °C 23.3 °C 1011.4 hPa North 4.8 km/h 12.9 km/h 72% 0 mm 942 W/m2
13:30 29.1 °C 23.6 °C 1011.4 hPa NNE 3.2 km/h 12.9 km/h 72% 0 mm 935 W/m2
13:40 29.3 °C 23.9 °C 1011.4 hPa NNE 4.8 km/h 12.9 km/h 73% 0 mm 371 W/m2
13:50 29.3 °C 24.2 °C 1011.1 hPa North 1.6 km/h 12.9 km/h 74% 0 mm 715 W/m2
14:00 29.3 °C 23.9 °C 1011.1 hPa NNW 3.2 km/h 11.3 km/h 73% 0 mm 584 W/m2
14:10 29.1 °C 23.8 °C 1011.1 hPa North 1.6 km/h 12.9 km/h 73% 0 mm 367 W/m2
14:20 28.9 °C 23.3 °C 1011.4 hPa North 1.6 km/h 14.5 km/h 72% 0 mm 316 W/m2
14:30 28.7 °C 23.3 °C 1011.1 hPa North 4.8 km/h 9.7 km/h 73% 0 mm 226 W/m2
14:40 28.4 °C 23.1 °C 1011.1 hPa NNW 1.6 km/h 9.7 km/h 73% 0 mm 147 W/m2
14:50 28.1 °C 23 °C 1011.1 hPa West 3.2 km/h 6.4 km/h 74% 0.25 mm 125 W/m2
15:00 27.6 °C 23.4 °C 1011.1 hPa SW 11.3 km/h 20.9 km/h 78% 0 mm 45 W/m2
15:10 26.6 °C 22.8 °C 1011.4 hPa SW 11.3 km/h 22.5 km/h 80% 0 mm 80 W/m2
15:20 25.9 °C 22.8 °C 1011.7 hPa SW 16.1 km/h 25.7 km/h 83% 0 mm 93 W/m2
15:30 25.3 °C 22.4 °C 1011.7 hPa WSW 16.1 km/h 24.1 km/h 84% 0 mm 123 W/m2
15:40 24.3 °C 20.2 °C 1011.7 hPa WSW 12.9 km/h 22.5 km/h 78% 0 mm 195 W/m2
Knjazevac, Serbia
Compliments of Weather Underground - 2 mb